Tolbukhin, Bulgaria
Current Conditions -  °F | °C
As of 4:30 AM on Monday 24 Nov 2014 (Local Time) from LBWN Reporting Station
Broken Clouds Broken Clouds  
Wind Chill: 36°   Ceiling: 4800
Heat Index: 39°   Visibility: 6mi
Dew Point: 34°   Wind: 4mph
Humidity: 81%   Direction: NA
Pressure: 30.36"   Gusts: NA
Location:  43.57°N, 27.82°E
Report Text: LBWN 240130Z VRB02MPS 9999 FEW013 BKN048 04/01 Q1028 NOSIG
Loading
Personal Weather Stations






























Interactive Weather Map New forecast layout! Learn more

10-Day Weather Forecast

Advertisements
Track Severe Weather on mobile